createdAt,value
2022-09-14T00:01:38.348Z,67.27
2022-09-14T00:04:12.041Z,67.68
2022-09-14T00:06:41.085Z,67.31
2022-09-14T00:09:11.391Z,67.77
2022-09-14T00:11:41.750Z,67.82
2022-09-14T00:14:09.834Z,67.93
2022-09-14T00:16:40.260Z,68.03
2022-09-14T00:19:18.054Z,68.25
2022-09-14T00:21:46.109Z,68.05
2022-09-14T00:24:14.493Z,67.95
2022-09-14T00:26:42.980Z,67.68
2022-09-14T00:29:12.208Z,68.07
2022-09-14T00:31:41.730Z,67.89
2022-09-14T00:34:15.604Z,68.17
2022-09-14T00:36:46.397Z,68.42
2022-09-14T00:39:15.532Z,68.82
2022-09-14T00:41:45.715Z,69.02
2022-09-14T00:44:51.806Z,68.82
2022-09-14T00:47:20.911Z,68.29
2022-09-14T00:49:50.311Z,68.21
2022-09-14T00:52:23.522Z,68.49
2022-09-14T00:54:54.547Z,68.20
2022-09-14T00:57:24.173Z,67.80
2022-09-14T00:59:53.646Z,68.05
2022-09-14T01:02:24.858Z,67.98
2022-09-14T01:04:54.473Z,67.88
2022-09-14T01:07:34.048Z,67.27
2022-09-14T01:10:08.504Z,67.55
2022-09-14T01:12:57.759Z,67.25
2022-09-14T01:15:36.505Z,66.66
2022-09-14T01:18:13.415Z,66.96
2022-09-14T01:20:48.724Z,67.01
2022-09-14T01:23:24.254Z,66.73
2022-09-14T01:26:14.462Z,66.61
2022-09-14T01:28:53.186Z,66.27
2022-09-14T01:31:28.408Z,66.50
2022-09-14T01:34:05.984Z,66.14
2022-09-14T01:36:38.212Z,65.83
2022-09-14T01:39:08.386Z,66.64
2022-09-14T01:41:38.062Z,66.44
2022-09-14T01:44:14.223Z,66.25
2022-09-14T01:46:46.334Z,66.13
2022-09-14T01:49:20.195Z,66.32
2022-09-14T01:51:53.157Z,65.94
2022-09-14T01:54:26.555Z,65.90
2022-09-14T01:56:58.121Z,65.67
2022-09-14T01:59:33.789Z,65.66
2022-09-14T02:02:05.902Z,65.44
2022-09-14T02:04:41.649Z,65.11
2022-09-14T02:07:09.943Z,65.21
2022-09-14T02:09:39.013Z,65.08
2022-09-14T02:12:08.200Z,65.37
2022-09-14T02:14:37.716Z,65.10
2022-09-14T02:17:08.836Z,64.67
2022-09-14T02:19:41.136Z,64.89
2022-09-14T02:22:09.654Z,64.83
2022-09-14T02:24:37.882Z,64.86
2022-09-14T02:27:07.415Z,65.34
2022-09-14T02:29:38.349Z,65.22
2022-09-14T02:32:16.472Z,65.07
2022-09-14T02:34:54.158Z,64.97
2022-09-14T02:37:29.137Z,64.81
2022-09-14T02:40:07.619Z,64.85
2022-09-14T02:42:42.523Z,65.07
2022-09-14T02:45:20.263Z,64.86
2022-09-14T02:48:04.876Z,64.73
2022-09-14T02:50:41.497Z,65.06
2022-09-14T02:53:16.289Z,64.74
2022-09-14T02:55:51.179Z,64.94
2022-09-14T02:58:19.111Z,65.20
2022-09-14T03:00:50.608Z,65.42
2022-09-14T03:03:21.758Z,65.34
2022-09-14T03:05:49.826Z,65.13
2022-09-14T03:08:18.315Z,65.42
2022-09-14T03:10:46.554Z,65.62
2022-09-14T03:13:14.600Z,65.72
2022-09-14T03:15:43.261Z,65.28
2022-09-14T03:18:14.662Z,66.03
2022-09-14T03:20:43.528Z,66.14
2022-09-14T03:23:12.329Z,65.51
2022-09-14T03:25:42.040Z,66.02
2022-09-14T03:28:11.922Z,66.20
2022-09-14T03:30:39.835Z,66.13
2022-09-14T03:33:08.421Z,66.29
2022-09-14T03:35:37.580Z,66.21
2022-09-14T03:38:05.948Z,66.40
2022-09-14T03:40:33.792Z,66.24
2022-09-14T03:43:02.177Z,66.21
2022-09-14T03:45:29.923Z,66.36
2022-09-14T03:47:57.953Z,66.24
2022-09-14T03:50:26.197Z,66.03
2022-09-14T03:52:56.138Z,66.23
2022-09-14T03:55:24.432Z,66.36
2022-09-14T03:57:54.844Z,66.68
2022-09-14T04:00:23.607Z,66.81
2022-09-14T04:02:51.483Z,66.65
2022-09-14T04:05:21.798Z,66.80
2022-09-14T04:07:50.355Z,66.98
2022-09-14T04:10:19.649Z,66.98
2022-09-14T04:12:47.449Z,66.76
2022-09-14T04:15:15.832Z,66.71
2022-09-14T04:17:43.768Z,67.35
2022-09-14T04:20:12.376Z,66.97
2022-09-14T04:22:40.068Z,67.35
2022-09-14T04:25:08.393Z,67.15
2022-09-14T04:27:37.918Z,67.39
2022-09-14T04:30:06.995Z,67.03
2022-09-14T04:32:35.355Z,66.89
2022-09-14T04:35:03.126Z,66.84
2022-09-14T04:37:32.682Z,66.89
2022-09-14T04:40:00.930Z,66.72
2022-09-14T04:42:28.715Z,66.54
2022-09-14T04:44:58.232Z,66.68
2022-09-14T04:47:26.473Z,66.60
2022-09-14T04:49:54.670Z,66.47
2022-09-14T04:52:23.397Z,66.81
2022-09-14T04:54:51.119Z,66.87
2022-09-14T04:57:19.793Z,66.81
2022-09-14T04:59:47.527Z,67.26
2022-09-14T05:02:17.322Z,67.21
2022-09-14T05:04:45.136Z,67.47
2022-09-14T05:07:13.137Z,67.71
2022-09-14T05:09:41.217Z,67.82
2022-09-14T05:12:09.215Z,68.17
2022-09-14T05:14:37.305Z,67.85
2022-09-14T05:17:05.248Z,68.23
2022-09-14T05:19:34.340Z,68.38
2022-09-14T05:22:02.580Z,68.14
2022-09-14T05:24:30.293Z,68.39
2022-09-14T05:27:01.097Z,68.09
2022-09-14T05:29:31.887Z,68.32
2022-09-14T05:32:00.070Z,68.52
2022-09-14T05:34:28.007Z,68.68
2022-09-14T05:36:57.104Z,68.90
2022-09-14T05:39:26.457Z,68.70
2022-09-14T05:41:54.213Z,68.43
2022-09-14T05:44:21.954Z,68.43
2022-09-14T05:46:50.284Z,68.26
2022-09-14T05:49:18.065Z,68.35
2022-09-14T05:51:45.834Z,68.04
2022-09-14T05:54:15.412Z,68.50
2022-09-14T05:56:43.176Z,68.32
2022-09-14T05:59:13.075Z,68.06
2022-09-14T06:01:41.106Z,68.26
2022-09-14T06:04:11.073Z,68.41
2022-09-14T06:06:39.260Z,68.76
2022-09-14T06:09:07.007Z,68.26
2022-09-14T06:11:37.359Z,68.24
2022-09-14T06:14:08.067Z,68.41
2022-09-14T06:16:36.022Z,68.27
2022-09-14T06:19:03.888Z,68.40
2022-09-14T06:21:35.423Z,68.28
2022-09-14T06:24:03.518Z,68.15
2022-09-14T06:26:31.318Z,68.06
2022-09-14T06:29:00.461Z,68.13
2022-09-14T06:31:28.298Z,67.49
2022-09-14T06:33:56.048Z,67.84
2022-09-14T06:36:25.626Z,67.83
2022-09-14T06:38:54.610Z,67.65
2022-09-14T06:41:26.404Z,67.88
2022-09-14T06:43:56.042Z,67.40
2022-09-14T06:46:27.308Z,67.49
2022-09-14T06:48:57.693Z,66.93
2022-09-14T06:51:29.254Z,67.47
2022-09-14T06:53:59.422Z,67.41
2022-09-14T06:56:27.901Z,67.53
2022-09-14T06:58:55.735Z,67.33
2022-09-14T07:01:25.938Z,67.35
2022-09-14T07:03:54.141Z,67.44
2022-09-14T07:06:24.013Z,67.52
2022-09-14T07:08:52.913Z,67.29
2022-09-14T07:11:26.585Z,67.28
2022-09-14T07:13:57.182Z,66.97
2022-09-14T07:16:27.282Z,67.36
2022-09-14T07:18:55.691Z,67.13
2022-09-14T07:21:23.793Z,67.08
2022-09-14T07:23:52.088Z,67.30
2022-09-14T07:26:22.011Z,66.86
2022-09-14T07:28:58.109Z,66.82
2022-09-14T07:31:28.449Z,66.98
2022-09-14T07:33:59.704Z,67.21
2022-09-14T07:36:33.977Z,67.19
2022-09-14T07:41:51.381Z,66.88
2022-09-14T07:47:10.086Z,66.74
2022-09-14T07:49:38.227Z,66.70
2022-09-14T07:52:06.042Z,66.60
2022-09-14T07:54:35.530Z,66.49
2022-09-14T07:57:03.642Z,66.44
2022-09-14T07:59:36.011Z,66.31
2022-09-14T08:02:07.347Z,66.55
2022-09-14T08:04:38.581Z,66.67
2022-09-14T08:07:06.731Z,66.74
2022-09-14T08:09:34.924Z,66.58
2022-09-14T08:12:03.179Z,66.80
2022-09-14T08:14:31.118Z,66.85
2022-09-14T08:16:59.900Z,66.72
2022-09-14T08:19:27.999Z,66.99
2022-09-14T08:21:57.295Z,66.94
2022-09-14T08:24:25.347Z,66.91
2022-09-14T08:26:54.134Z,67.10
2022-09-14T08:29:23.067Z,67.29
2022-09-14T08:31:52.020Z,66.95
2022-09-14T08:34:20.947Z,67.18
2022-09-14T08:36:49.161Z,67.04
2022-09-14T08:39:19.512Z,66.77
2022-09-14T08:41:54.127Z,66.81
2022-09-14T08:44:26.102Z,66.93
2022-09-14T08:47:00.362Z,66.70
2022-09-14T08:49:40.051Z,66.85
2022-09-14T08:52:13.917Z,66.78
2022-09-14T08:54:43.187Z,66.94
2022-09-14T08:57:17.313Z,66.84
2022-09-14T08:59:53.029Z,67.13
2022-09-14T09:02:35.804Z,67.17
2022-09-14T09:05:17.793Z,67.04
2022-09-14T09:07:55.545Z,67.20
2022-09-14T09:10:27.482Z,67.39
2022-09-14T09:12:58.829Z,67.80
2022-09-14T09:15:30.044Z,67.35
2022-09-14T09:18:02.377Z,67.20
2022-09-14T09:20:34.257Z,67.09
2022-09-14T09:23:09.340Z,67.05
2022-09-14T09:25:51.926Z,67.36
2022-09-14T09:28:21.121Z,66.85
2022-09-14T09:30:49.217Z,67.02
2022-09-14T09:33:23.029Z,67.28
2022-09-14T09:35:51.102Z,67.11
2022-09-14T09:38:24.769Z,66.90
2022-09-14T09:40:57.252Z,67.28
2022-09-14T09:43:45.679Z,67.20
2022-09-14T09:46:13.624Z,66.95
2022-09-14T09:48:44.390Z,67.31
2022-09-14T09:51:14.119Z,67.14
2022-09-14T09:53:49.777Z,67.28
2022-09-14T09:56:22.164Z,67.76
2022-09-14T09:58:52.568Z,67.50
2022-09-14T10:01:24.193Z,67.82
2022-09-14T10:04:04.920Z,67.81
2022-09-14T10:06:33.183Z,67.45
2022-09-14T10:09:00.992Z,67.78
2022-09-14T10:11:34.376Z,67.76
2022-09-14T10:14:02.493Z,67.45
2022-09-14T10:16:37.903Z,67.68
2022-09-14T10:19:13.879Z,67.70
2022-09-14T10:22:03.565Z,67.95
2022-09-14T10:24:33.180Z,67.84
2022-09-14T10:27:02.833Z,68.27
2022-09-14T10:29:39.836Z,67.94
2022-09-14T10:32:20.336Z,68.28
2022-09-14T10:34:48.378Z,68.55
2022-09-14T10:37:32.146Z,68.37
2022-09-14T10:40:20.261Z,68.80
2022-09-14T10:43:04.595Z,68.73
2022-09-14T10:45:37.238Z,68.78
2022-09-14T10:48:31.989Z,68.55
2022-09-14T10:51:10.770Z,68.73
2022-09-14T10:53:50.228Z,69.13
2022-09-14T10:56:23.427Z,69.41
2022-09-14T10:59:15.527Z,69.74
2022-09-14T11:02:26.031Z,69.75
2022-09-14T11:05:06.516Z,69.49
2022-09-14T11:07:43.093Z,69.60
2022-09-14T11:10:22.777Z,69.57
2022-09-14T11:13:02.528Z,69.88
2022-09-14T11:15:42.369Z,69.51
2022-09-14T11:18:21.779Z,69.50
2022-09-14T11:21:02.175Z,69.42
2022-09-14T11:23:42.070Z,69.46
2022-09-14T11:26:15.800Z,69.29
2022-09-14T11:28:49.097Z,69.18
2022-09-14T11:31:23.620Z,69.40
2022-09-14T11:33:57.583Z,69.60
2022-09-14T11:36:29.563Z,69.71
2022-09-14T11:39:06.850Z,69.82
2022-09-14T11:41:40.620Z,70.18
2022-09-14T11:44:17.376Z,70.48
2022-09-14T11:46:50.859Z,70.38
2022-09-14T11:49:23.816Z,70.51
2022-09-14T11:51:57.034Z,70.89
2022-09-14T11:54:25.869Z,70.50
2022-09-14T11:56:58.407Z,70.75
2022-09-14T11:59:51.661Z,71.03
2022-09-14T12:02:59.216Z,71.16
2022-09-14T12:05:38.389Z,70.94
2022-09-14T12:08:41.599Z,71.37
2022-09-14T12:11:29.345Z,71.35
2022-09-14T12:14:27.579Z,71.42
2022-09-14T12:17:38.268Z,71.14
2022-09-14T12:20:43.267Z,71.18
2022-09-14T12:23:24.274Z,71.12
2022-09-14T12:26:00.290Z,70.99
2022-09-14T12:28:39.555Z,70.65
2022-09-14T12:31:12.867Z,70.20
2022-09-14T12:34:25.712Z,70.83
2022-09-14T12:37:29.638Z,70.75
2022-09-14T12:40:36.704Z,70.66
2022-09-14T12:43:50.634Z,70.67
2022-09-14T12:46:40.193Z,70.69
2022-09-14T12:49:31.047Z,70.25
2022-09-14T12:52:06.143Z,70.02
2022-09-14T12:54:52.846Z,70.07
2022-09-14T12:57:30.749Z,70.15
2022-09-14T13:00:07.230Z,69.68
2022-09-14T13:03:19.731Z,70.01
2022-09-14T13:05:47.881Z,69.79
2022-09-14T13:08:22.880Z,69.93
2022-09-14T13:10:53.857Z,70.09
2022-09-14T13:13:25.486Z,69.97
2022-09-14T13:15:56.989Z,69.89
2022-09-14T13:18:35.695Z,69.65
2022-09-14T13:21:18.357Z,69.83
2022-09-14T13:23:47.233Z,69.73
2022-09-14T13:26:20.224Z,69.63
2022-09-14T13:28:51.096Z,69.05
2022-09-14T13:31:23.590Z,69.04
2022-09-14T13:33:55.631Z,68.86
2022-09-14T13:36:26.885Z,68.91
2022-09-14T13:38:57.091Z,68.95
2022-09-14T13:41:25.412Z,68.49
2022-09-14T13:43:56.935Z,68.76
2022-09-14T13:46:27.732Z,68.93
2022-09-14T13:48:57.985Z,68.83
2022-09-14T13:51:29.727Z,68.62
2022-09-14T13:54:00.180Z,68.94
2022-09-14T13:56:32.395Z,68.66
2022-09-14T14:02:14.664Z,68.64
2022-09-14T14:04:49.877Z,68.73
2022-09-14T14:07:22.968Z,68.73
2022-09-14T14:09:53.449Z,68.85
2022-09-14T14:12:27.456Z,68.89
2022-09-14T14:14:57.552Z,68.83
2022-09-14T14:17:36.875Z,68.98
2022-09-14T14:20:30.982Z,69.16
2022-09-14T14:23:00.511Z,68.85
2022-09-14T14:25:35.127Z,68.88
2022-09-14T14:28:04.537Z,68.63
2022-09-14T14:30:34.917Z,68.65
2022-09-14T14:33:02.847Z,68.55
2022-09-14T14:35:32.732Z,68.43
2022-09-14T14:38:00.961Z,68.38
2022-09-14T14:40:29.097Z,68.41
2022-09-14T14:42:58.795Z,68.31
2022-09-14T14:45:28.430Z,68.72
2022-09-14T14:47:57.521Z,68.72
2022-09-14T14:50:27.077Z,68.84
2022-09-14T14:52:56.795Z,68.85
2022-09-14T14:55:27.408Z,68.93
2022-09-14T14:57:55.780Z,69.48
2022-09-14T15:00:25.684Z,69.58
2022-09-14T15:02:53.434Z,69.53
2022-09-14T15:05:21.690Z,69.81
2022-09-14T15:07:52.209Z,69.58
2022-09-14T15:10:23.090Z,69.77
2022-09-14T15:12:52.322Z,70.02
2022-09-14T15:15:23.695Z,70.07
2022-09-14T15:17:52.129Z,69.64
2022-09-14T15:20:20.552Z,70.11
2022-09-14T15:22:49.217Z,69.83
2022-09-14T15:25:19.313Z,70.26
2022-09-14T15:27:49.323Z,70.35
2022-09-14T15:30:17.762Z,70.11
2022-09-14T15:32:45.499Z,70.02
2022-09-14T15:35:15.783Z,69.61
2022-09-14T15:37:44.098Z,69.70
2022-09-14T15:40:12.328Z,69.56
2022-09-14T15:42:40.354Z,69.54
2022-09-14T15:45:11.209Z,69.32
2022-09-14T15:47:38.966Z,69.08
2022-09-14T15:50:08.387Z,69.25
2022-09-14T15:52:37.187Z,68.88
2022-09-14T15:55:05.577Z,68.95
2022-09-14T15:57:33.810Z,69.03
2022-09-14T16:00:01.876Z,69.09
2022-09-14T16:02:31.013Z,68.97
2022-09-14T16:04:58.818Z,68.76
2022-09-14T16:07:28.094Z,68.95
2022-09-14T16:09:58.806Z,69.00
2022-09-14T16:12:27.378Z,68.55
2022-09-14T16:14:55.818Z,68.52
2022-09-14T16:17:23.758Z,68.75
2022-09-14T16:19:53.066Z,68.21
2022-09-14T16:22:21.905Z,68.62
2022-09-14T16:24:49.985Z,68.78
2022-09-14T16:27:18.209Z,69.02
2022-09-14T16:29:45.976Z,69.27
2022-09-14T16:32:13.784Z,69.10
2022-09-14T16:34:41.829Z,69.12
2022-09-14T16:37:11.176Z,68.90
2022-09-14T16:39:38.925Z,68.79
2022-09-14T16:42:07.627Z,68.59
2022-09-14T16:44:35.588Z,68.70
2022-09-14T16:47:03.402Z,68.93
2022-09-14T16:49:31.470Z,68.90
2022-09-14T16:52:00.720Z,68.65
2022-09-14T16:54:31.854Z,69.05
2022-09-14T16:57:01.198Z,68.82
2022-09-14T16:59:29.045Z,68.65
2022-09-14T17:01:57.137Z,68.86
2022-09-14T17:04:26.348Z,68.82
2022-09-14T17:06:56.044Z,68.99
2022-09-14T17:09:26.642Z,69.61
2022-09-14T17:11:57.543Z,69.35
2022-09-14T17:14:27.105Z,69.72
2022-09-14T17:16:55.029Z,69.79
2022-09-14T17:19:23.214Z,69.90
2022-09-14T17:21:51.297Z,69.83
2022-09-14T17:24:20.493Z,69.94
2022-09-14T17:26:48.429Z,69.70
2022-09-14T17:29:17.825Z,70.12
2022-09-14T17:31:46.596Z,69.86
2022-09-14T17:34:16.977Z,70.21
2022-09-14T17:36:45.475Z,70.21
2022-09-14T17:39:14.232Z,70.22
2022-09-14T17:41:44.119Z,70.34
2022-09-14T17:44:13.658Z,70.39
2022-09-14T17:46:53.041Z,70.33
2022-09-14T17:49:22.111Z,70.40
2022-09-14T17:51:50.184Z,70.58
2022-09-14T17:54:18.764Z,70.53
2022-09-14T17:56:46.700Z,70.17
2022-09-14T17:59:17.516Z,70.55
2022-09-14T18:01:46.653Z,70.61
2022-09-14T18:04:15.982Z,70.83
2022-09-14T18:06:46.040Z,70.57
2022-09-14T18:09:16.343Z,70.35
2022-09-14T18:11:44.644Z,70.63
2022-09-14T18:14:14.132Z,70.41
2022-09-14T18:16:42.817Z,70.50
2022-09-14T18:19:12.229Z,70.04
2022-09-14T18:21:40.103Z,70.09
2022-09-14T18:24:08.278Z,70.14
2022-09-14T18:26:36.831Z,70.16
2022-09-14T18:29:04.569Z,70.00
2022-09-14T18:31:32.409Z,69.89
2022-09-14T18:34:01.590Z,69.68
2022-09-14T18:36:31.819Z,69.55
2022-09-14T18:38:59.960Z,69.76
2022-09-14T18:41:29.100Z,69.94
2022-09-14T18:43:56.995Z,70.09
2022-09-14T18:46:28.092Z,70.14
2022-09-14T18:48:57.899Z,70.02
2022-09-14T18:51:26.332Z,70.52
2022-09-14T18:53:58.989Z,70.37
2022-09-14T18:56:28.017Z,70.29
2022-09-14T18:58:55.913Z,70.05
2022-09-14T19:01:23.791Z,70.06
2022-09-14T19:03:52.117Z,70.16
2022-09-14T19:06:21.941Z,70.08
2022-09-14T19:08:50.883Z,70.09
2022-09-14T19:11:21.980Z,69.95
2022-09-14T19:13:55.442Z,69.67
2022-09-14T19:16:23.295Z,69.84
2022-09-14T19:18:51.122Z,69.99
2022-09-14T19:21:23.696Z,69.33
2022-09-14T19:23:57.349Z,69.60
2022-09-14T19:26:28.258Z,69.65
2022-09-14T19:28:56.259Z,69.60
2022-09-14T19:31:24.456Z,69.77
2022-09-14T19:33:52.524Z,69.81
2022-09-14T19:36:22.072Z,69.81
2022-09-14T19:38:51.589Z,69.61
2022-09-14T19:41:20.569Z,69.96
2022-09-14T19:43:50.062Z,69.56
2022-09-14T19:46:20.042Z,69.21
2022-09-14T19:48:48.323Z,69.07
2022-09-14T19:51:17.919Z,69.14
2022-09-14T19:53:48.398Z,69.19
2022-09-14T19:56:18.636Z,69.19
2022-09-14T19:58:51.434Z,69.35
2022-09-14T20:01:21.315Z,69.24
2022-09-14T20:03:50.490Z,69.09
2022-09-14T20:06:22.596Z,69.18
2022-09-14T20:08:53.015Z,69.21
2022-09-14T20:11:24.404Z,69.29
2022-09-14T20:13:54.608Z,69.22
2022-09-14T20:16:25.525Z,69.20
2022-09-14T20:18:53.532Z,69.58
2022-09-14T20:21:23.440Z,69.28
2022-09-14T20:24:14.790Z,69.28
2022-09-14T20:26:43.919Z,69.49
2022-09-14T20:29:13.073Z,69.19
2022-09-14T20:31:41.025Z,69.12
2022-09-14T20:34:09.128Z,69.16
2022-09-14T20:36:36.932Z,69.36
2022-09-14T20:39:05.308Z,69.46
2022-09-14T20:41:35.019Z,69.34
2022-09-14T20:44:03.575Z,69.16
2022-09-14T20:46:35.916Z,69.20
2022-09-14T20:49:05.442Z,69.21
2022-09-14T20:51:33.608Z,69.41
2022-09-14T20:54:01.461Z,69.39
2022-09-14T20:56:31.366Z,69.29
2022-09-14T20:59:00.608Z,69.19
2022-09-14T21:01:31.076Z,69.36
2022-09-14T21:04:05.035Z,69.46
2022-09-14T21:06:34.272Z,69.30
2022-09-14T21:09:02.357Z,69.51
2022-09-14T21:11:31.258Z,69.64
2022-09-14T21:13:59.762Z,69.38
2022-09-14T21:16:29.367Z,69.51
2022-09-14T21:19:00.177Z,69.49
2022-09-14T21:21:30.432Z,69.33
2022-09-14T21:23:59.686Z,69.33
2022-09-14T21:26:30.182Z,69.48
2022-09-14T21:28:59.640Z,69.38
2022-09-14T21:31:28.692Z,69.43
2022-09-14T21:33:59.077Z,69.49
2022-09-14T21:36:30.145Z,69.54
2022-09-14T21:38:59.718Z,69.34
2022-09-14T21:41:29.974Z,69.44
2022-09-14T21:43:58.218Z,69.09
2022-09-14T21:46:26.769Z,69.29
2022-09-14T21:48:55.908Z,69.24
2022-09-14T21:51:26.264Z,69.21
2022-09-14T21:53:58.361Z,68.74
2022-09-14T21:56:28.154Z,68.86
2022-09-14T21:58:58.710Z,68.73
2022-09-14T22:01:26.919Z,68.78
2022-09-14T22:03:56.087Z,68.73
2022-09-14T22:06:27.327Z,68.79
2022-09-14T22:08:57.543Z,69.02
2022-09-14T22:11:27.125Z,68.60
2022-09-14T22:13:55.956Z,68.36
2022-09-14T22:16:26.006Z,68.40
2022-09-14T22:18:56.317Z,68.30
2022-09-14T22:21:27.111Z,68.03
2022-09-14T22:23:58.513Z,67.85
2022-09-14T22:26:29.003Z,67.67
2022-09-14T22:28:58.840Z,67.73
2022-09-14T22:31:28.632Z,67.88
2022-09-14T22:33:58.189Z,67.69
2022-09-14T22:36:26.861Z,67.69
2022-09-14T22:38:59.139Z,67.82
2022-09-14T22:41:28.871Z,67.40
2022-09-14T22:43:57.645Z,67.19
2022-09-14T22:46:26.194Z,66.87
2022-09-14T22:48:54.276Z,67.04
2022-09-14T22:51:24.785Z,66.59
2022-09-14T22:53:53.730Z,66.43
2022-09-14T22:56:25.146Z,66.48
2022-09-14T22:58:53.580Z,66.03
2022-09-14T23:01:24.003Z,66.16
2022-09-14T23:03:56.380Z,66.09
2022-09-14T23:06:27.940Z,66.02
2022-09-14T23:08:56.158Z,66.02
2022-09-14T23:11:25.500Z,65.56
2022-09-14T23:13:53.452Z,65.62
2022-09-14T23:16:26.483Z,65.63
2022-09-14T23:18:55.795Z,65.37
2022-09-14T23:21:25.072Z,65.42
2022-09-14T23:23:53.578Z,65.48
2022-09-14T23:26:22.232Z,65.20
2022-09-14T23:28:56.083Z,64.93
2022-09-14T23:31:24.677Z,65.08
2022-09-14T23:33:53.775Z,64.80
2022-09-14T23:36:23.112Z,64.86
2022-09-14T23:38:51.486Z,64.46
2022-09-14T23:41:23.738Z,64.73
2022-09-14T23:43:51.915Z,64.67
2022-09-14T23:46:22.093Z,64.56
2022-09-14T23:48:50.594Z,64.79
2022-09-14T23:51:18.368Z,64.44
2022-09-14T23:53:46.964Z,64.44
2022-09-14T23:56:15.446Z,64.49
2022-09-14T23:58:43.676Z,64.34
